Sibirskiy-2112 — UBXE8 — position and weather

sailwx.info

Track history (hours):
 
Tides and Currents Weather Stations Pressure Air Temp Water Temp Dewpoint Dewpoint Depression Visibility Wind Speed Wind Dir Waves Ship Positions

Sibirskiy-2112

Last reported at 2015-Feb-22 18:05 UTC. Time now 2015-Feb-28 17:28 UTC.
Position N 44°05' E 034°45'.

Length 129 m; draft 2.8 m.

Type: Cargo ship. MMSI: 273342420.

Date/timePositionNaut miles runAvg speedWind from/ knotsBaromVisibWave heightAir tempDewpointWater temp
2015-Feb-22 18:05N 44°05' E 034°45'3 5.7
2015-Feb-22 17:29N 44°05' E 034°40'9 6.0
2015-Feb-22 16:05N 44°04' E 034°28'  
2015-Feb-20 11:16N 40°57' E 028°55'0 0.0
2015-Feb-19 13:28N 40°57' E 028°55'0 0.0
2015-Feb-19 06:24N 40°57' E 028°55'0 0.0
2015-Feb-19 03:06N 40°57' E 028°55'0 0.0
2015-Feb-19 02:06N 40°57' E 028°55'0 0.0
2015-Feb-18 21:09N 40°57' E 028°55'0 0.0
2015-Feb-18 19:31N 40°57' E 028°55'0 0.0
2015-Feb-18 13:27N 40°57' E 028°55'0 0.0
2015-Feb-17 11:23N 40°57' E 028°55'5 4.0
2015-Feb-17 10:13N 40°52' E 028°54'8 1.6
2015-Feb-17 05:15N 40°47' E 028°46'3 2.8
2015-Feb-17 04:19N 40°48' E 028°49'2 2.8
2015-Feb-17 03:31N 40°49' E 028°52'4 3.9
2015-Feb-17 02:30N 40°48' E 028°57'7 7.7
2015-Feb-17 01:33N 40°47' E 029°07'8 7.7
2015-Feb-17 00:33N 40°46' E 029°17'8 7.9
2015-Feb-16 23:33N 40°45' E 029°27'  
2015-Feb-14 05:24N 41°18' E 029°20'  
Track history (hours):
 
Tides and Currents Weather Stations Pressure Air Temp Water Temp Dewpoint Dewpoint Depression Visibility Wind Speed Wind Dir Waves Ship Positions

Sibirskiy-2112

Last reported at 2015-Feb-22 18:05 UTC. Time now 2015-Feb-28 17:28 UTC.
Position N 44°05' E 034°45'.

Length 129 m; draft 2.8 m.

Type: Cargo ship. MMSI: 273342420.

Date/timePositionNaut miles runAvg speedWind from/ knotsBaromVisibWave heightAir tempDewpointWater temp
2015-Feb-22 18:05N 44°05' E 034°45'3 5.7
2015-Feb-22 17:29N 44°05' E 034°40'9 6.0
2015-Feb-22 16:05N 44°04' E 034°28'  
2015-Feb-20 11:16N 40°57' E 028°55'0 0.0
2015-Feb-19 13:28N 40°57' E 028°55'0 0.0
2015-Feb-19 06:24N 40°57' E 028°55'0 0.0
2015-Feb-19 03:06N 40°57' E 028°55'0 0.0
2015-Feb-19 02:06N 40°57' E 028°55'0 0.0
2015-Feb-18 21:09N 40°57' E 028°55'0 0.0
2015-Feb-18 19:31N 40°57' E 028°55'0 0.0
2015-Feb-18 13:27N 40°57' E 028°55'0 0.0
2015-Feb-17 11:23N 40°57' E 028°55'5 4.0
2015-Feb-17 10:13N 40°52' E 028°54'8 1.6
2015-Feb-17 05:15N 40°47' E 028°46'3 2.8
2015-Feb-17 04:19N 40°48' E 028°49'2 2.8
2015-Feb-17 03:31N 40°49' E 028°52'4 3.9
2015-Feb-17 02:30N 40°48' E 028°57'7 7.7
2015-Feb-17 01:33N 40°47' E 029°07'8 7.7
2015-Feb-17 00:33N 40°46' E 029°17'8 7.9
2015-Feb-16 23:33N 40°45' E 029°27'  
2015-Feb-14 05:24N 41°18' E 029°20'  

Dump ship's entire track history